Time;durP1;ratioP1;P1;durP2;ratioP2;P2;SDS_P1;SDS_P2;PMS_P1;PMS_P2;Temp;Humidity;BMP_temperature;BMP_pressure;BME280_temperature;BME280_humidity;BME280_pressure;Samples;Min_cycle;Max_cycle;Signal;HPM_P1;HPM_P2
2022/05/31 03:02:12;;;;;;;0.70;0.60;;;13.40;63.00;;;;;;5281590;23;20493;-72
2022/05/31 03:04:39;;;;;;;0.70;0.60;;;13.40;63.00;;;;;;4976307;28;20449;-72
2022/05/31 03:07:09;;;;;;;0.70;0.60;;;13.40;63.00;;;;;;4976234;28;20450;-72
2022/05/31 03:09:35;;;;;;;0.80;0.60;;;13.40;63.00;;;;;;4976118;28;20856;-72
2022/05/31 03:12:08;;;;;;;0.70;0.60;;;13.30;63.20;;;;;;4975699;28;20466;-72
2022/05/31 03:14:41;;;;;;;0.70;0.60;;;13.30;63.10;;;;;;5000676;23;20434;-68
2022/05/31 03:17:14;;;;;;;0.73;0.57;;;13.30;63.00;;;;;;4956064;29;20451;-68
2022/05/31 03:19:46;;;;;;;1.00;0.60;;;13.30;63.10;;;;;;4956178;29;20467;-68
2022/05/31 03:22:16;;;;;;;0.70;0.60;;;13.30;62.90;;;;;;4955856;29;20867;-68
2022/05/31 03:24:47;;;;;;;0.70;0.60;;;13.20;63.20;;;;;;4956103;29;20439;-68
2022/05/31 03:27:14;;;;;;;0.70;0.60;;;13.20;63.30;;;;;;4956067;29;20506;-68
2022/05/31 03:29:45;;;;;;;0.97;0.60;;;13.10;63.30;;;;;;4955962;28;20443;-68
2022/05/31 03:32:15;;;;;;;0.70;0.60;;;13.10;63.10;;;;;;4955929;28;20946;-68
2022/05/31 03:34:41;;;;;;;0.80;0.60;;;13.00;63.30;;;;;;4955780;29;20454;-68
2022/05/31 03:37:08;;;;;;;0.70;0.60;;;13.10;63.40;;;;;;4955805;28;20554;-68
2022/05/31 03:39:35;;;;;;;0.70;0.60;;;13.00;63.50;;;;;;4955605;29;20494;-68
2022/05/31 03:42:01;;;;;;;0.70;0.60;;;13.00;63.60;;;;;;4955708;29;20501;-68
2022/05/31 03:44:28;;;;;;;0.70;0.60;;;13.00;63.70;;;;;;4955333;29;20462;-68
2022/05/31 03:46:55;;;;;;;0.70;0.60;;;13.00;63.80;;;;;;4955386;28;21033;-68
2022/05/31 03:49:22;;;;;;;0.70;0.70;;;13.00;64.00;;;;;;4955410;29;21009;-68
2022/05/31 03:51:49;;;;;;;0.70;0.60;;;13.00;64.20;;;;;;4955506;29;20451;-68
2022/05/31 03:54:16;;;;;;;0.70;0.60;;;13.00;64.10;;;;;;4955617;28;20451;-68
2022/05/31 03:56:43;;;;;;;0.70;0.63;;;13.10;64.20;;;;;;4955500;29;20466;-68
2022/05/31 03:59:10;;;;;;;0.70;0.60;;;13.00;64.30;;;;;;4955389;29;20517;-68
2022/05/31 04:01:36;;;;;;;0.70;0.60;;;13.00;64.30;;;;;;4955225;29;20887;-68
2022/05/31 04:04:03;;;;;;;0.80;0.70;;;13.00;64.40;;;;;;4956114;29;20466;-68
2022/05/31 04:06:32;;;;;;;0.73;0.70;;;13.10;64.30;;;;;;4955274;29;20558;-68
2022/05/31 04:08:58;;;;;;;0.70;0.60;;;13.10;64.40;;;;;;4955369;29;20447;-68
2022/05/31 04:11:25;;;;;;;0.80;0.60;;;13.10;64.50;;;;;;4955321;28;20866;-67
2022/05/31 04:13:52;;;;;;;0.80;0.70;;;13.10;64.80;;;;;;4954912;28;20885;-67
2022/05/31 04:16:19;;;;;;;0.80;0.70;;;13.10;64.80;;;;;;4954699;29;21001;-67
2022/05/31 04:18:46;;;;;;;0.70;0.60;;;13.10;64.80;;;;;;4954984;29;20482;-67
2022/05/31 04:21:16;;;;;;;0.70;0.60;;;13.10;64.90;;;;;;4955241;28;20457;-68
2022/05/31 04:24:01;;;;;;;0.70;0.60;;;13.10;64.70;;;;;;4954561;28;20439;-68
2022/05/31 04:26:30;;;;;;;0.70;0.60;;;13.10;64.90;;;;;;4954969;29;20471;-68
2022/05/31 04:28:57;;;;;;;0.70;0.70;;;13.20;65.10;;;;;;4955467;29;20459;-68
2022/05/31 04:31:24;;;;;;;0.70;0.60;;;13.20;65.10;;;;;;4954821;29;20510;-67
2022/05/31 04:33:51;;;;;;;0.70;0.60;;;13.30;65.00;;;;;;4954865;29;20459;-68
2022/05/31 04:36:20;;;;;;;0.70;0.60;;;13.40;64.70;;;;;;4954726;29;20517;-67
2022/05/31 04:38:48;;;;;;;0.70;0.60;;;13.50;64.60;;;;;;4954823;29;20804;-67
2022/05/31 04:41:18;;;;;;;0.80;0.70;;;13.60;64.30;;;;;;4954906;29;20446;-68
2022/05/31 04:43:45;;;;;;;1.07;0.80;;;13.70;64.40;;;;;;4954788;29;20443;-68
2022/05/31 04:46:13;;;;;;;0.70;0.60;;;13.90;64.60;;;;;;4954791;29;20467;-67
2022/05/31 04:48:39;;;;;;;0.70;0.63;;;14.00;64.00;;;;;;4954756;29;20450;-67
2022/05/31 04:51:06;;;;;;;0.70;0.70;;;14.10;64.10;;;;;;4954379;29;20476;-67
2022/05/31 04:53:33;;;;;;;0.70;0.50;;;14.30;64.00;;;;;;4954825;29;20920;-67
2022/05/31 04:56:02;;;;;;;0.70;0.60;;;14.40;63.40;;;;;;4954451;29;20889;-68
2022/05/31 04:58:28;;;;;;;0.70;0.70;;;14.40;61.30;;;;;;4954596;29;20447;-68
2022/05/31 05:00:56;;;;;;;0.70;0.70;;;14.50;61.70;;;;;;4954595;29;20490;-68
2022/05/31 05:03:22;;;;;;;0.70;0.60;;;14.60;61.10;;;;;;4954673;29;20455;-68
2022/05/31 05:05:49;;;;;;;0.70;0.60;;;14.80;61.10;;;;;;4954416;29;20633;-68
2022/05/31 05:08:15;;;;;;;0.70;0.60;;;14.90;60.40;;;;;;4954581;29;20502;-67
2022/05/31 05:10:45;;;;;;;1.37;0.60;;;14.80;59.10;;;;;;4954128;29;20869;-68
2022/05/31 05:13:13;;;;;;;0.83;0.60;;;14.80;60.00;;;;;;4954401;28;20983;-67
2022/05/31 05:15:40;;;;;;;0.70;0.60;;;15.00;59.80;;;;;;4954045;28;20491;-68
2022/05/31 05:18:07;;;;;;;1.00;0.60;;;15.20;59.60;;;;;;4954505;29;20455;-68
2022/05/31 05:20:35;;;;;;;0.70;0.60;;;14.90;58.80;;;;;;4954322;29;20510;-67
2022/05/31 05:23:04;;;;;;;0.80;0.60;;;14.90;59.70;;;;;;4954384;29;20451;-67
2022/05/31 05:25:31;;;;;;;0.70;0.70;;;14.80;60.00;;;;;;4954333;29;20570;-67
2022/05/31 05:27:58;;;;;;;0.70;0.60;;;14.90;59.60;;;;;;4954306;29;20530;-68
2022/05/31 05:30:40;;;;;;;0.80;0.60;;;14.80;60.40;;;;;;4954631;29;20450;-68
2022/05/31 05:33:10;;;;;;;0.70;0.70;;;15.00;60.40;;;;;;4954696;28;20499;-68
2022/05/31 05:35:37;;;;;;;0.70;0.60;;;14.90;60.40;;;;;;4957894;29;20474;-67
2022/05/31 05:38:04;;;;;;;0.80;0.60;;;15.10;60.40;;;;;;4957971;28;20450;-68
2022/05/31 05:40:30;;;;;;;0.70;0.60;;;15.10;60.00;;;;;;4957905;29;20490;-68
2022/05/31 05:42:57;;;;;;;0.70;0.60;;;15.20;59.80;;;;;;4957808;29;20517;-68
2022/05/31 05:45:24;;;;;;;0.70;0.60;;;15.10;60.90;;;;;;4957481;28;20954;-68
2022/05/31 05:47:52;;;;;;;0.70;0.60;;;15.30;60.50;;;;;;4957733;29;20514;-67
2022/05/31 05:50:19;;;;;;;0.70;0.60;;;15.50;60.50;;;;;;4957799;29;20811;-68
2022/05/31 05:52:50;;;;;;;0.90;0.60;;;15.40;59.80;;;;;;4957596;29;20866;-67
2022/05/31 05:55:17;;;;;;;0.70;0.60;;;15.20;60.10;;;;;;4957438;29;20883;-67
2022/05/31 05:57:44;;;;;;;0.70;0.60;;;15.50;61.00;;;;;;4957806;29;20455;-67
2022/05/31 06:00:12;;;;;;;0.70;0.60;;;15.70;60.80;;;;;;4957692;29;20483;-68
2022/05/31 06:02:42;;;;;;;0.70;0.60;;;15.90;60.70;;;;;;4957731;28;20458;-67
2022/05/31 06:05:15;;;;;;;0.80;0.70;;;15.90;60.10;;;;;;4957919;29;20466;-67
2022/05/31 06:07:46;;;;;;;0.90;0.60;;;16.30;60.00;;;;;;4957741;29;20497;-67
2022/05/31 06:10:17;;;;;;;0.70;0.60;;;16.30;58.70;;;;;;4957541;29;20490;-67
2022/05/31 06:12:49;;;;;;;0.70;0.60;;;16.40;58.00;;;;;;4957847;29;20435;-67
2022/05/31 06:15:20;;;;;;;0.70;0.60;;;15.80;58.90;;;;;;4957432;28;20495;-67
2022/05/31 06:17:49;;;;;;;0.70;0.70;;;15.60;59.90;;;;;;4957625;29;20451;-69
2022/05/31 06:20:17;;;;;;;0.70;0.60;;;15.30;61.60;;;;;;4957586;29;20561;-69
2022/05/31 06:22:44;;;;;;;0.90;0.70;;;15.40;62.00;;;;;;4957251;29;20450;-67
2022/05/31 06:25:14;;;;;;;0.70;0.50;;;15.50;62.40;;;;;;4957255;29;20475;-67
2022/05/31 06:27:41;;;;;;;0.70;0.60;;;15.70;61.80;;;;;;4957221;29;20445;-67
2022/05/31 06:30:09;;;;;;;0.70;0.60;;;15.80;61.10;;;;;;4957198;29;20443;-67
2022/05/31 06:32:35;;;;;;;0.80;0.60;;;15.60;61.50;;;;;;4957137;28;20525;-67
2022/05/31 06:35:02;;;;;;;0.73;0.60;;;15.40;62.70;;;;;;4956981;29;20466;-67
2022/05/31 06:37:30;;;;;;;0.70;0.60;;;15.50;63.10;;;;;;4957218;28;20518;-69
2022/05/31 06:39:57;;;;;;;0.70;0.60;;;15.50;63.30;;;;;;4956774;29;20478;-67
2022/05/31 06:42:25;;;;;;;0.67;0.60;;;15.40;63.50;;;;;;4956522;28;20506;-67
2022/05/31 06:44:52;;;;;;;1.00;0.60;;;15.60;63.40;;;;;;4955643;28;21056;-67
2022/05/31 06:47:18;;;;;;;1.13;0.70;;;15.70;62.10;;;;;;4956706;28;20451;-67
2022/05/31 06:49:45;;;;;;;0.70;0.60;;;15.80;63.40;;;;;;4956726;29;20447;-67
2022/05/31 06:57:54;;;;;;;0.70;0.60;;;16.10;62.30;;;;;;4952360;28;20441;-67
2022/05/31 07:00:23;;;;;;;0.70;0.60;;;16.50;60.80;;;;;;4956469;29;20490;-67
2022/05/31 07:02:50;;;;;;;1.33;0.60;;;16.70;59.60;;;;;;4956554;28;20489;-68
2022/05/31 07:05:18;;;;;;;0.70;0.60;;;17.10;57.10;;;;;;4956958;28;20890;-69
2022/05/31 07:07:45;;;;;;;0.70;0.60;;;17.20;57.00;;;;;;4956429;29;20455;-67
2022/05/31 07:10:14;;;;;;;0.70;0.70;;;17.20;58.70;;;;;;4956059;29;20938;-68
2022/05/31 07:12:42;;;;;;;0.70;0.57;;;17.40;58.90;;;;;;4956146;28;21033;-67
2022/05/31 07:15:09;;;;;;;0.80;0.60;;;17.50;57.60;;;;;;4956079;29;20837;-67
2022/05/31 07:17:36;;;;;;;0.70;0.70;;;17.30;57.80;;;;;;4956272;28;20800;-67
2022/05/31 07:20:04;;;;;;;0.70;0.50;;;17.10;58.50;;;;;;4956027;29;20947;-68
2022/05/31 07:22:30;;;;;;;0.70;0.60;;;17.20;59.30;;;;;;4956207;29;20862;-67
2022/05/31 07:24:57;;;;;;;0.70;0.60;;;17.30;58.80;;;;;;4955971;28;20470;-67
2022/05/31 07:27:25;;;;;;;0.70;0.60;;;17.50;59.20;;;;;;4957164;29;20451;-67
2022/05/31 07:29:52;;;;;;;0.80;0.70;;;17.40;58.80;;;;;;4955881;29;20938;-68
2022/05/31 07:32:19;;;;;;;0.60;0.50;;;17.30;59.30;;;;;;4956102;29;20857;-67
2022/05/31 07:34:45;;;;;;;0.67;0.57;;;17.40;60.10;;;;;;4955723;29;20962;-68
2022/05/31 07:37:14;;;;;;;0.70;0.60;;;17.40;60.20;;;;;;4955690;29;20943;-68
2022/05/31 07:39:41;;;;;;;0.70;0.60;;;17.50;60.40;;;;;;4956354;29;20458;-67
2022/05/31 07:42:08;;;;;;;0.70;0.60;;;18.10;59.10;;;;;;4955949;28;20599;-67
2022/05/31 07:44:36;;;;;;;0.70;0.60;;;18.50;57.90;;;;;;4955806;28;20451;-67
2022/05/31 07:47:03;;;;;;;0.70;0.60;;;18.70;56.60;;;;;;4955593;29;20458;-67
2022/05/31 07:49:30;;;;;;;0.63;0.57;;;18.80;56.90;;;;;;4955901;29;20451;-68
2022/05/31 07:51:57;;;;;;;0.70;0.60;;;18.70;57.00;;;;;;4955748;29;20534;-68
2022/05/31 07:54:24;;;;;;;0.70;0.60;;;18.70;55.10;;;;;;4955721;29;20447;-67
2022/05/31 07:56:50;;;;;;;0.63;0.60;;;18.70;56.30;;;;;;4955581;28;20474;-68
2022/05/31 07:59:17;;;;;;;0.70;0.60;;;18.50;55.60;;;;;;4955676;29;20451;-67
2022/05/31 08:01:45;;;;;;;0.70;0.50;;;18.40;56.50;;;;;;4955515;29;20486;-67
2022/05/31 08:04:13;;;;;;;0.70;0.60;;;18.40;56.80;;;;;;4955523;29;20451;-67
2022/05/31 08:06:40;;;;;;;0.67;0.63;;;18.70;56.60;;;;;;4955469;29;20479;-67
2022/05/31 08:09:07;;;;;;;0.67;0.50;;;19.20;55.30;;;;;;4955511;29;20509;-67
2022/05/31 08:11:35;;;;;;;0.87;0.60;;;19.50;54.50;;;;;;4955563;29;20498;-67
2022/05/31 08:14:03;;;;;;;0.70;0.70;;;19.30;54.90;;;;;;4955558;28;20451;-69
2022/05/31 08:16:31;;;;;;;0.70;0.60;;;19.70;54.90;;;;;;4955677;29;20490;-68
2022/05/31 08:18:59;;;;;;;0.60;0.60;;;20.10;54.30;;;;;;4955427;28;20451;-68
2022/05/31 08:21:28;;;;;;;0.70;0.60;;;20.40;54.30;;;;;;4955350;29;20479;-67
2022/05/31 08:23:56;;;;;;;0.80;0.60;;;20.50;54.80;;;;;;4955033;29;20454;-68
2022/05/31 08:26:23;;;;;;;0.80;0.60;;;20.60;55.00;;;;;;4955313;29;20481;-68
2022/05/31 08:28:49;;;;;;;0.70;0.60;;;20.50;55.70;;;;;;4955264;29;20518;-68
2022/05/31 08:31:20;;;;;;;0.70;0.60;;;20.80;53.60;;;;;;4955153;29;20451;-67
2022/05/31 08:33:47;;;;;;;0.70;0.60;;;20.80;55.20;;;;;;4955166;29;20501;-67
2022/05/31 08:36:15;;;;;;;0.70;0.60;;;20.50;53.90;;;;;;4955249;29;20478;-68
2022/05/31 08:38:42;;;;;;;0.60;0.50;;;20.70;53.60;;;;;;4955061;29;20454;-67
2022/05/31 08:41:16;;;;;;;0.70;0.60;;;20.70;54.10;;;;;;4954897;29;20556;-68
2022/05/31 08:43:59;;;;;;;0.67;0.53;;;20.80;52.70;;;;;;4955215;29;20447;-68
2022/05/31 08:46:33;;;;;;;0.80;0.60;;;20.70;52.70;;;;;;4955152;29;20550;-68
2022/05/31 08:49:02;;;;;;;0.70;0.57;;;20.70;51.10;;;;;;4954988;29;20430;-70
2022/05/31 08:51:55;;;;;;;0.80;0.63;;;20.70;53.80;;;;;;4955159;29;20498;-69
2022/05/31 08:57:25;;;;;;;0.70;0.60;;;20.70;52.00;;;;;;4954783;29;20418;-68
2022/05/31 08:59:58;;;;;;;0.90;0.50;;;20.80;52.50;;;;;;4954891;29;20929;-68
2022/05/31 09:02:30;;;;;;;0.80;0.70;;;20.90;53.00;;;;;;4955004;28;20467;-68
2022/05/31 09:05:03;;;;;;;0.70;0.50;;;21.10;51.30;;;;;;4954962;29;20478;-68
2022/05/31 09:07:37;;;;;;;0.63;0.50;;;21.20;53.50;;;;;;4955031;28;20454;-70
2022/05/31 09:10:08;;;;;;;0.70;0.60;;;21.10;51.20;;;;;;4958444;29;20435;-68
2022/05/31 09:12:42;;;;;;;0.70;0.60;;;20.80;51.40;;;;;;4958649;29;20439;-68
2022/05/31 09:15:15;;;;;;;0.70;0.60;;;20.70;53.90;;;;;;4985240;23;20494;-71
2022/05/31 09:17:51;;;;;;;1.10;0.70;;;20.60;52.20;;;;;;4959031;29;20447;-71
2022/05/31 09:20:28;;;;;;;1.17;0.70;;;20.90;52.80;;;;;;4958825;29;20426;-73
2022/05/31 09:22:56;;;;;;;0.70;0.60;;;21.10;51.10;;;;;;4958968;29;20438;-71
2022/05/31 09:25:23;;;;;;;0.70;0.60;;;21.10;51.10;;;;;;4958535;29;20529;-71
2022/05/31 09:27:51;;;;;;;2.00;0.60;;;21.40;52.20;;;;;;4958835;29;20458;-71
2022/05/31 09:30:25;;;;;;;0.60;0.50;;;21.80;51.40;;;;;;4958805;29;20450;-71
2022/05/31 09:33:04;;;;;;;0.70;0.50;;;21.90;50.80;;;;;;4958893;29;20437;-71
2022/05/31 09:35:47;;;;;;;0.70;0.70;;;21.90;50.80;;;;;;4958584;29;20474;-68
2022/05/31 09:38:52;;;;;;;0.70;0.50;;;22.10;51.50;;;;;;4958671;29;20497;-70
2022/05/31 09:41:23;;;;;;;0.60;0.50;;;22.50;49.40;;;;;;4958561;29;20473;-68
2022/05/31 09:44:00;;;;;;;1.37;0.60;;;22.90;50.10;;;;;;4958246;29;20903;-68
2022/05/31 09:46:35;;;;;;;0.70;0.50;;;22.90;48.40;;;;;;4958635;29;20481;-69
2022/05/31 09:49:14;;;;;;;0.67;0.53;;;22.90;45.10;;;;;;4958481;29;20494;-68
2022/05/31 09:51:43;;;;;;;0.60;0.53;;;23.00;45.90;;;;;;4958377;29;20427;-69
2022/05/31 09:57:10;;;;;;;0.70;0.70;;;23.40;46.60;;;;;;4958261;29;20453;-68
2022/05/31 09:59:44;;;;;;;0.70;0.57;;;23.60;46.10;;;;;;4958250;29;20505;-69
2022/05/31 10:02:21;;;;;;;1.00;0.67;;;23.90;45.00;;;;;;4958165;29;20470;-69
2022/05/31 10:04:49;;;;;;;0.70;0.57;;;23.80;46.10;;;;;;4958178;29;20435;-69
2022/05/31 10:07:32;;;;;;;0.70;0.60;;;24.00;46.60;;;;;;4958081;29;20470;-69
2022/05/31 10:10:06;;;;;;;0.70;0.60;;;24.00;46.00;;;;;;4958173;29;20522;-70
2022/05/31 10:12:34;;;;;;;0.70;0.70;;;24.00;44.20;;;;;;4958011;29;20431;-69
2022/05/31 10:15:03;;;;;;;0.90;0.60;;;23.80;44.90;;;;;;4957584;29;20455;-70
2022/05/31 10:17:38;;;;;;;0.80;0.60;;;23.70;46.80;;;;;;4957978;29;20443;-69
2022/05/31 10:20:19;;;;;;;0.77;0.57;;;23.80;45.90;;;;;;4956963;28;20439;-70
2022/05/31 10:22:50;;;;;;;0.70;0.50;;;23.40;46.00;;;;;;4957771;29;20498;-70
2022/05/31 10:25:21;;;;;;;0.70;0.53;;;23.60;47.70;;;;;;4957821;29;20478;-71
2022/05/31 10:27:48;;;;;;;1.27;0.60;;;23.70;45.80;;;;;;4957795;29;20443;-70
2022/05/31 10:30:20;;;;;;;0.60;0.50;;;24.00;43.60;;;;;;4957698;29;20525;-70
2022/05/31 10:32:51;;;;;;;1.20;0.67;;;24.20;44.60;;;;;;4957665;29;20810;-70
2022/05/31 10:35:20;;;;;;;0.80;0.60;;;24.30;44.60;;;;;;4957482;29;20526;-70
2022/05/31 10:37:56;;;;;;;0.77;0.57;;;24.50;45.30;;;;;;4957509;28;20458;-71
2022/05/31 10:40:29;;;;;;;0.80;0.50;;;24.80;45.30;;;;;;4957523;29;20467;-70
2022/05/31 10:43:04;;;;;;;0.60;0.50;;;25.00;44.30;;;;;;4957479;29;20518;-70
2022/05/31 10:45:32;;;;;;;0.70;0.60;;;25.00;44.80;;;;;;4957386;29;20525;-72
2022/05/31 10:48:00;;;;;;;0.70;0.60;;;24.90;43.80;;;;;;4957099;29;20455;-70
2022/05/31 10:50:34;;;;;;;0.80;0.70;;;24.90;45.00;;;;;;4957295;28;20459;-72
2022/05/31 10:53:18;;;;;;;0.60;0.50;;;24.90;46.30;;;;;;4957375;29;20435;-70
2022/05/31 10:55:51;;;;;;;0.80;0.60;;;25.10;47.10;;;;;;4957416;29;20538;-71
2022/05/31 10:58:47;;;;;;;0.90;0.60;;;25.20;47.30;;;;;;4957517;29;20431;-70
2022/05/31 11:01:33;;;;;;;0.90;0.60;;;25.10;46.60;;;;;;4957082;28;20553;-70
2022/05/31 11:04:12;;;;;;;0.70;0.70;;;25.00;46.60;;;;;;4957209;29;20526;-70
2022/05/31 11:06:54;;;;;;;0.80;0.60;;;24.80;47.50;;;;;;4957033;29;20537;-70
2022/05/31 11:12:37;;;;;;;0.90;0.60;;;24.40;50.20;;;;;;4957003;29;20410;-70
2022/05/31 11:15:19;;;;;;;0.70;0.60;;;24.50;48.80;;;;;;4956719;29;20435;-72
2022/05/31 11:18:07;;;;;;;0.70;0.60;;;24.80;47.80;;;;;;4956938;29;20443;-69
2022/05/31 11:20:38;;;;;;;0.80;0.60;;;25.00;47.20;;;;;;4956890;28;20494;-70
2022/05/31 11:23:21;;;;;;;0.80;0.60;;;25.20;48.10;;;;;;4956667;29;20497;-70
2022/05/31 11:26:05;;;;;;;0.70;0.60;;;25.30;45.60;;;;;;4956657;29;20908;-71
2022/05/31 11:28:45;;;;;;;0.60;0.50;;;25.10;45.80;;;;;;4956654;29;20435;-69
2022/05/31 11:31:25;;;;;;;0.70;0.60;;;25.10;46.70;;;;;;4956235;28;20482;-70
2022/05/31 11:34:02;;;;;;;0.70;0.60;;;25.30;46.90;;;;;;4956586;29;20431;-69
2022/05/31 11:36:40;;;;;;;0.70;0.63;;;25.40;45.40;;;;;;4956892;29;20480;-70
2022/05/31 11:39:21;;;;;;;0.97;0.73;;;25.40;46.20;;;;;;4956465;28;20442;-70
2022/05/31 11:41:59;;;;;;;0.70;0.60;;;25.50;45.40;;;;;;4956384;29;20518;-70
2022/05/31 11:44:50;;;;;;;0.60;0.50;;;25.30;44.60;;;;;;4956189;29;20907;-70
2022/05/31 11:47:32;;;;;;;0.60;0.50;;;25.40;45.60;;;;;;4956316;28;20478;-70
2022/05/31 11:50:10;;;;;;;0.60;0.60;;;25.50;44.60;;;;;;4956616;29;20450;-70
2022/05/31 11:52:53;;;;;;;0.70;0.60;;;25.30;44.90;;;;;;4956221;29;20489;-70
2022/05/31 11:55:29;;;;;;;0.73;0.63;;;25.40;44.70;;;;;;4956137;28;20478;-72
2022/05/31 11:58:10;;;;;;;0.67;0.50;;;25.70;44.60;;;;;;4956360;29;20431;-72
2022/05/31 12:00:44;;;;;;;0.80;0.60;;;26.00;43.70;;;;;;4956034;29;20435;-70
2022/05/31 12:03:16;;;;;;;0.67;0.57;;;26.10;44.40;;;;;;4956010;29;20518;-70
2022/05/31 12:05:46;;;;;;;0.70;0.70;;;25.90;44.90;;;;;;4955869;29;20471;-72
2022/05/31 12:08:17;;;;;;;0.70;0.60;;;26.00;44.40;;;;;;4956917;29;20439;-70
2022/05/31 12:10:48;;;;;;;1.03;0.63;;;26.00;44.50;;;;;;4955955;29;20438;-70
2022/05/31 12:13:16;;;;;;;0.70;0.57;;;25.90;43.20;;;;;;4955804;29;20446;-71
2022/05/31 12:15:46;;;;;;;0.60;0.50;;;25.80;43.10;;;;;;4955469;29;20501;-70
2022/05/31 12:18:19;;;;;;;0.93;0.67;;;25.60;43.70;;;;;;4955750;29;20443;-71
2022/05/31 12:20:53;;;;;;;0.60;0.50;;;25.40;43.00;;;;;;4955826;29;20526;-71
2022/05/31 12:23:27;;;;;;;0.70;0.60;;;25.20;43.20;;;;;;4955680;29;20471;-70
2022/05/31 12:25:57;;;;;;;0.70;0.60;;;25.00;43.20;;;;;;4955318;29;21064;-72
2022/05/31 12:28:27;;;;;;;0.70;0.60;;;24.90;43.70;;;;;;4955598;29;20501;-70
2022/05/31 12:31:02;;;;;;;0.70;0.60;;;24.70;43.10;;;;;;4955649;29;20468;-71
2022/05/31 12:33:38;;;;;;;0.63;0.50;;;24.70;44.20;;;;;;4955617;29;20434;-70
2022/05/31 12:36:08;;;;;;;0.70;0.50;;;24.60;43.30;;;;;;4955499;29;20545;-71
2022/05/31 12:38:53;;;;;;;0.83;0.70;;;24.50;44.20;;;;;;4955519;29;20450;-71
2022/05/31 12:41:33;;;;;;;0.70;0.60;;;24.50;43.50;;;;;;4955538;28;20490;-71
2022/05/31 12:44:01;;;;;;;0.90;0.70;;;24.40;43.30;;;;;;4954863;28;20435;-73
2022/05/31 12:46:38;;;;;;;0.70;0.60;;;24.40;43.50;;;;;;4955108;29;21013;-74
2022/05/31 12:49:09;;;;;;;0.60;0.50;;;24.40;44.80;;;;;;4955415;29;20435;-72
2022/05/31 12:51:35;;;;;;;1.00;0.60;;;24.40;45.30;;;;;;4955436;29;20435;-75
2022/05/31 12:54:08;;;;;;;0.70;0.60;;;24.40;45.00;;;;;;4955419;28;20459;-72
2022/05/31 12:56:53;;;;;;;0.70;0.57;;;24.60;46.40;;;;;;4955341;29;20470;-70
2022/05/31 12:59:59;;;;;;;0.60;0.50;;;24.90;44.80;;;;;;4955344;29;20436;-69
2022/05/31 13:02:36;;;;;;;0.70;0.57;;;24.80;43.40;;;;;;4954887;29;20483;-69
2022/05/31 13:05:21;;;;;;;0.70;0.60;;;24.70;46.00;;;;;;4955153;29;20430;-70
2022/05/31 13:07:48;;;;;;;0.70;0.60;;;25.00;43.80;;;;;;4954788;29;20509;-69
2022/05/31 13:10:37;;;;;;;0.70;0.60;;;25.00;44.20;;;;;;4955169;29;20931;-68
2022/05/31 13:21:30;;;;;;;0.77;0.77;;;25.60;41.70;;;;;;4955075;29;20480;-71
2022/05/31 13:23:58;;;;;;;0.70;0.57;;;25.80;41.60;;;;;;4955015;29;20439;-70
2022/05/31 13:26:29;;;;;;;0.70;0.60;;;25.90;40.90;;;;;;4955011;29;20478;-71
2022/05/31 13:29:01;;;;;;;0.70;0.60;;;25.90;42.20;;;;;;4955047;29;20518;-70
2022/05/31 13:31:30;;;;;;;1.10;0.60;;;26.00;40.80;;;;;;4955000;29;20440;-72
2022/05/31 13:33:59;;;;;;;0.93;0.60;;;26.10;41.70;;;;;;4966262;29;20470;-71
2022/05/31 13:36:28;;;;;;;0.70;0.50;;;26.10;40.50;;;;;;4978818;29;20483;-70
2022/05/31 13:38:59;;;;;;;0.90;0.60;;;26.30;42.30;;;;;;4958580;29;20447;-70
2022/05/31 13:41:28;;;;;;;0.73;0.67;;;26.30;39.60;;;;;;4957337;29;20435;-70
2022/05/31 13:43:59;;;;;;;0.70;0.50;;;26.10;39.90;;;;;;4956386;29;20455;-70
2022/05/31 13:46:30;;;;;;;0.80;0.70;;;26.20;39.80;;;;;;4955307;29;20518;-70
2022/05/31 13:49:03;;;;;;;0.70;0.60;;;26.30;39.90;;;;;;4955565;29;20868;-69
2022/05/31 13:51:32;;;;;;;0.70;0.60;;;26.40;40.10;;;;;;4955545;29;20537;-70
2022/05/31 13:54:08;;;;;;;0.67;0.60;;;26.50;39.80;;;;;;4955425;28;20542;-70
2022/05/31 13:56:36;;;;;;;0.70;0.60;;;26.40;39.90;;;;;;4958792;29;20552;-71
2022/05/31 13:59:04;;;;;;;0.60;0.50;;;26.40;39.20;;;;;;4958600;28;20546;-71
2022/05/31 14:01:37;;;;;;;0.67;0.60;;;26.30;39.10;;;;;;4958410;29;20502;-70
2022/05/31 14:04:11;;;;;;;1.33;0.60;;;26.20;39.10;;;;;;4958725;29;20902;-70
2022/05/31 14:06:41;;;;;;;0.67;0.60;;;26.10;40.00;;;;;;4958447;29;20477;-70
2022/05/31 14:09:14;;;;;;;0.80;0.60;;;26.10;41.50;;;;;;4958286;29;20490;-71
2022/05/31 14:11:47;;;;;;;0.70;0.50;;;26.20;39.40;;;;;;4958254;29;20435;-71
2022/05/31 14:14:27;;;;;;;0.60;0.40;;;25.90;39.70;;;;;;4958110;29;20439;-71
2022/05/31 14:16:55;;;;;;;0.60;0.50;;;26.00;40.20;;;;;;4957585;29;20509;-70
2022/05/31 14:19:25;;;;;;;0.60;0.50;;;26.20;39.50;;;;;;4958052;29;20482;-71
2022/05/31 14:21:55;;;;;;;1.00;0.60;;;26.30;38.80;;;;;;4958031;28;20431;-71
2022/05/31 14:24:24;;;;;;;0.70;0.50;;;26.30;38.80;;;;;;4957568;29;20843;-70
2022/05/31 14:26:54;;;;;;;0.70;0.60;;;26.20;40.20;;;;;;4957454;28;21045;-70
2022/05/31 14:29:29;;;;;;;0.70;0.60;;;26.00;39.60;;;;;;4957503;29;20880;-71
2022/05/31 14:32:17;;;;;;;0.63;0.50;;;25.90;40.30;;;;;;4957723;29;20522;-69
2022/05/31 14:34:48;;;;;;;0.70;0.60;;;25.70;40.00;;;;;;4957649;29;20483;-71
2022/05/31 14:37:30;;;;;;;0.70;0.50;;;25.40;39.90;;;;;;4957257;29;20898;-71
2022/05/31 14:40:03;;;;;;;0.77;0.63;;;25.20;40.70;;;;;;4957694;29;20435;-71
2022/05/31 14:42:34;;;;;;;0.70;0.50;;;25.20;41.50;;;;;;4957536;29;20470;-69
2022/05/31 14:45:02;;;;;;;0.60;0.50;;;25.20;41.80;;;;;;4957372;29;20538;-71
2022/05/31 14:47:34;;;;;;;0.70;0.60;;;25.10;42.50;;;;;;4957466;29;20455;-70
2022/05/31 14:50:26;;;;;;;0.70;0.50;;;25.20;41.80;;;;;;4957414;29;20439;-70
2022/05/31 14:52:56;;;;;;;0.70;0.60;;;25.00;40.90;;;;;;4957473;29;20436;-71
2022/05/31 14:55:41;;;;;;;0.80;0.60;;;25.00;41.30;;;;;;4957205;29;20565;-69
2022/05/31 15:00:57;;;;;;;0.80;0.60;;;24.80;41.40;;;;;;4957151;29;20906;-70
2022/05/31 15:03:33;;;;;;;0.60;0.50;;;24.70;42.20;;;;;;4956982;28;20483;-71
2022/05/31 15:06:04;;;;;;;0.70;0.60;;;24.50;41.80;;;;;;4955971;28;21074;-69
2022/05/31 15:08:33;;;;;;;0.70;0.60;;;24.40;42.50;;;;;;4957044;28;20498;-69
2022/05/31 15:19:10;;;;;;;0.70;0.50;;;24.10;41.50;;;;;;4976149;28;20418;-73
2022/05/31 15:21:40;;;;;;;0.80;0.70;;;23.90;41.90;;;;;;4976085;28;20454;-74
2022/05/31 15:24:14;;;;;;;0.70;0.60;;;23.80;42.20;;;;;;4975982;28;20497;-73
2022/05/31 15:26:41;;;;;;;0.60;0.50;;;23.60;42.40;;;;;;4975947;28;20461;-73
2022/05/31 15:29:08;;;;;;;1.00;1.00;;;23.50;42.80;;;;;;4975922;28;20465;-73
2022/05/31 15:31:36;;;;;;;0.70;0.60;;;23.40;42.50;;;;;;4975522;28;20852;-74
2022/05/31 15:34:03;;;;;;;1.27;0.60;;;23.40;42.70;;;;;;4975821;28;20481;-73
2022/05/31 15:36:32;;;;;;;0.90;0.60;;;23.40;43.10;;;;;;4975680;28;20470;-73
2022/05/31 15:39:01;;;;;;;1.00;0.60;;;23.40;43.20;;;;;;4975659;28;20461;-73
2022/05/31 15:41:29;;;;;;;0.60;0.50;;;23.30;42.50;;;;;;4975612;28;20509;-73
2022/05/31 15:44:02;;;;;;;0.70;0.60;;;23.10;43.20;;;;;;4975552;28;20481;-73
2022/05/31 15:46:32;;;;;;;1.20;0.70;;;23.00;43.30;;;;;;4975571;28;20844;-73
2022/05/31 15:49:00;;;;;;;0.87;0.70;;;22.90;43.50;;;;;;4975264;28;20809;-74
2022/05/31 15:51:29;;;;;;;0.70;0.60;;;22.90;43.60;;;;;;4975534;28;20453;-73
2022/05/31 15:53:57;;;;;;;0.60;0.57;;;22.90;43.50;;;;;;4975455;28;20447;-73
2022/05/31 15:56:30;;;;;;;0.80;0.60;;;23.00;44.00;;;;;;4975265;28;20475;-73
2022/05/31 15:58:57;;;;;;;0.70;0.50;;;22.90;43.50;;;;;;4975331;28;20438;-73
2022/05/31 16:01:24;;;;;;;0.93;0.53;;;22.60;43.40;;;;;;4975307;28;20501;-74
2022/05/31 16:03:50;;;;;;;0.70;0.60;;;22.70;43.70;;;;;;4975204;28;20532;-73
2022/05/31 16:06:19;;;;;;;0.70;0.50;;;22.70;43.90;;;;;;4975226;28;20964;-73
2022/05/31 16:08:46;;;;;;;0.70;0.60;;;22.70;43.80;;;;;;4975194;28;20453;-73
2022/05/31 16:11:13;;;;;;;0.70;0.60;;;22.70;43.90;;;;;;4974888;28;20889;-74
2022/05/31 16:13:41;;;;;;;0.70;0.70;;;22.60;44.30;;;;;;4974837;28;20868;-73
2022/05/31 16:16:08;;;;;;;0.80;0.60;;;22.80;44.30;;;;;;4974688;28;21005;-73
2022/05/31 16:18:34;;;;;;;0.70;0.70;;;23.00;43.90;;;;;;4974115;28;20446;-73
2022/05/31 16:21:01;;;;;;;0.70;0.57;;;23.10;44.00;;;;;;4974736;28;20574;-73
2022/05/31 16:23:30;;;;;;;1.23;0.70;;;23.10;44.20;;;;;;4974919;28;20490;-73
2022/05/31 16:25:57;;;;;;;0.70;0.60;;;23.00;43.60;;;;;;4974881;28;20476;-73
2022/05/31 16:28:24;;;;;;;0.70;0.60;;;23.00;43.60;;;;;;4974957;28;20453;-74
2022/05/31 16:30:55;;;;;;;0.60;0.50;;;23.10;43.40;;;;;;4974902;28;20457;-74
2022/05/31 16:33:23;;;;;;;0.80;0.60;;;23.10;43.10;;;;;;4974884;28;20441;-73
2022/05/31 16:35:52;;;;;;;0.70;0.60;;;22.80;43.90;;;;;;4974752;28;20473;-73
2022/05/31 16:41:17;;;;;;;0.60;0.53;;;22.70;43.90;;;;;;4934089;29;20482;-73
2022/05/31 16:43:47;;;;;;;0.70;0.60;;;22.70;44.10;;;;;;4964904;28;21008;-73
2022/05/31 16:46:17;;;;;;;0.70;0.60;;;22.90;43.80;;;;;;4974597;28;20470;-73